Time;durP1;ratioP1;P1;durP2;ratioP2;P2;SDS_P1;SDS_P2;PMS_P1;PMS_P2;Temp;Humidity;BMP_temperature;BMP_pressure;BME280_temperature;BME280_humidity;BME280_pressure;Samples;Min_cycle;Max_cycle;Signal;HPM_P1;HPM_P2
2022/07/01 00:01:17;;;;;;;12.07;7.20;;;;;;;;;;4935615;29;20051;-81
2022/07/01 00:04:05;;;;;;;11.68;7.20;;;;;;;;;;4936156;29;20040;-82
2022/07/01 00:06:51;;;;;;;15.50;6.30;;;;;;;;;;4936017;29;20052;-82
2022/07/01 00:09:39;;;;;;;11.15;6.28;;;;;;;;;;4935393;29;20055;-80
2022/07/01 00:12:25;;;;;;;11.23;6.80;;;;;;;;;;4936751;29;20389;-80
2022/07/01 00:15:10;;;;;;;11.85;6.50;;;;;;;;;;4939268;29;20486;-82
2022/07/01 00:17:57;;;;;;;13.10;6.97;;;;;;;;;;4940212;29;20405;-79
2022/07/01 00:20:42;;;;;;;15.13;6.22;;;;;;;;;;4939518;29;20043;-80
2022/07/01 00:23:28;;;;;;;16.15;6.82;;;;;;;;;;4939162;29;20043;-79
2022/07/01 00:26:14;;;;;;;10.25;5.78;;;;;;;;;;4939329;29;20390;-79
2022/07/01 00:28:59;;;;;;;10.57;5.75;;;;;;;;;;4938985;29;20047;-79
2022/07/01 00:31:45;;;;;;;12.60;5.82;;;;;;;;;;4939289;29;20059;-79
2022/07/01 00:34:30;;;;;;;12.00;6.57;;;;;;;;;;4938802;29;20056;-79
2022/07/01 00:37:16;;;;;;;12.30;5.95;;;;;;;;;;4944899;29;20051;-80
2022/07/01 00:40:02;;;;;;;12.35;6.88;;;;;;;;;;4939301;29;20047;-79
2022/07/01 00:42:47;;;;;;;12.25;6.63;;;;;;;;;;4939365;29;20159;-80
2022/07/01 00:45:33;;;;;;;14.75;6.68;;;;;;;;;;4943524;29;20048;-79
2022/07/01 00:48:20;;;;;;;12.25;6.03;;;;;;;;;;4944170;29;20055;-80
2022/07/01 00:51:07;;;;;;;10.63;6.03;;;;;;;;;;4944029;29;20039;-79
2022/07/01 00:53:52;;;;;;;11.45;6.50;;;;;;;;;;4940140;29;20055;-79
2022/07/01 00:56:38;;;;;;;11.07;6.72;;;;;;;;;;4938696;29;20051;-79
2022/07/01 00:59:23;;;;;;;11.07;6.95;;;;;;;;;;4938811;29;20044;-79
2022/07/01 01:02:08;;;;;;;11.77;5.95;;;;;;;;;;4938979;29;20051;-79
2022/07/01 01:04:54;;;;;;;9.75;6.40;;;;;;;;;;4939237;29;20044;-79
2022/07/01 01:07:40;;;;;;;9.50;6.45;;;;;;;;;;4939669;29;20047;-80
2022/07/01 01:10:27;;;;;;;10.77;6.50;;;;;;;;;;4944939;29;20055;-80
2022/07/01 01:13:14;;;;;;;10.27;6.75;;;;;;;;;;4937866;29;20051;-79
2022/07/01 01:16:00;;;;;;;9.98;6.80;;;;;;;;;;4938409;29;20056;-79
2022/07/01 01:18:45;;;;;;;16.17;7.22;;;;;;;;;;4938040;29;20048;-79
2022/07/01 01:21:31;;;;;;;12.60;6.90;;;;;;;;;;4944639;29;20044;-79
2022/07/01 01:24:16;;;;;;;18.48;7.13;;;;;;;;;;4938145;29;20052;-79
2022/07/01 01:27:05;;;;;;;14.10;7.55;;;;;;;;;;4937692;29;20052;-79
2022/07/01 01:29:50;;;;;;;12.18;7.05;;;;;;;;;;4937815;29;20048;-79
2022/07/01 01:32:36;;;;;;;12.23;6.53;;;;;;;;;;4938055;29;20051;-79
2022/07/01 01:35:22;;;;;;;14.98;7.00;;;;;;;;;;4937870;29;20507;-79
2022/07/01 01:38:07;;;;;;;11.98;6.93;;;;;;;;;;4937943;29;20048;-79
2022/07/01 01:40:52;;;;;;;11.48;7.47;;;;;;;;;;4937513;29;20425;-78
2022/07/01 01:43:38;;;;;;;12.57;6.90;;;;;;;;;;4937392;29;20052;-79
2022/07/01 01:46:25;;;;;;;10.98;6.65;;;;;;;;;;4937958;29;20043;-79
2022/07/01 01:49:10;;;;;;;12.80;7.00;;;;;;;;;;4937385;29;20394;-79
2022/07/01 01:52:00;;;;;;;12.38;7.28;;;;;;;;;;4937667;29;20052;-79
2022/07/01 01:54:47;;;;;;;13.07;7.13;;;;;;;;;;4936910;29;20494;-79
2022/07/01 01:57:32;;;;;;;12.10;7.22;;;;;;;;;;4937505;29;20040;-79
2022/07/01 02:00:17;;;;;;;17.48;7.32;;;;;;;;;;4937611;29;20056;-79
2022/07/01 02:03:04;;;;;;;11.98;6.72;;;;;;;;;;4937056;29;20051;-79
2022/07/01 02:05:50;;;;;;;13.70;6.07;;;;;;;;;;4937449;29;20043;-79
2022/07/01 02:08:39;;;;;;;11.07;6.40;;;;;;;;;;4937655;29;20043;-79
2022/07/01 02:11:25;;;;;;;11.77;6.07;;;;;;;;;;4937296;29;20478;-78
2022/07/01 02:14:10;;;;;;;13.23;5.35;;;;;;;;;;4937152;29;20405;-79
2022/07/01 02:16:56;;;;;;;10.25;5.70;;;;;;;;;;4936736;29;20394;-79
2022/07/01 02:19:42;;;;;;;10.20;5.47;;;;;;;;;;4937113;29;20043;-79
2022/07/01 02:22:28;;;;;;;13.85;6.18;;;;;;;;;;4937243;29;20047;-79
2022/07/01 02:25:13;;;;;;;9.00;6.57;;;;;;;;;;4936825;29;20397;-79
2022/07/01 02:27:58;;;;;;;12.15;6.15;;;;;;;;;;4937156;29;20052;-79
2022/07/01 02:30:44;;;;;;;16.20;7.00;;;;;;;;;;4936549;29;20043;-78
2022/07/01 02:33:30;;;;;;;9.95;6.93;;;;;;;;;;4936888;29;20043;-79
2022/07/01 02:36:16;;;;;;;12.13;6.60;;;;;;;;;;4936606;29;20490;-78
2022/07/01 02:39:02;;;;;;;11.38;6.60;;;;;;;;;;4936465;29;20052;-79
2022/07/01 02:44:56;;;;;;;11.23;7.05;;;;;;;;;;4955943;29;20036;-78
2022/07/01 02:47:41;;;;;;;15.85;7.82;;;;;;;;;;4965618;28;20043;-79
2022/07/01 02:50:28;;;;;;;11.13;7.35;;;;;;;;;;4959118;29;20051;-80
2022/07/01 02:53:12;;;;;;;13.63;7.50;;;;;;;;;;4958597;29;20047;-80
2022/07/01 02:55:58;;;;;;;11.57;7.63;;;;;;;;;;4959734;29;20047;-80
2022/07/01 02:58:44;;;;;;;12.65;6.97;;;;;;;;;;4959075;29;20047;-81
2022/07/01 03:01:29;;;;;;;12.55;7.20;;;;;;;;;;4960086;29;20047;-78
2022/07/01 03:04:15;;;;;;;14.65;7.43;;;;;;;;;;4960600;29;20047;-79
2022/07/01 03:07:00;;;;;;;12.43;6.85;;;;;;;;;;4959189;29;20501;-79
2022/07/01 03:09:46;;;;;;;12.80;7.50;;;;;;;;;;4955659;29;20043;-80
2022/07/01 03:12:34;;;;;;;8.70;7.45;;;;;;;;;;4955418;29;20040;-80
2022/07/01 03:15:19;;;;;;;17.20;7.28;;;;;;;;;;4955296;29;20051;-80
2022/07/01 03:18:04;;;;;;;12.00;7.80;;;;;;;;;;4955499;29;20047;-80
2022/07/01 03:20:51;;;;;;;10.10;7.07;;;;;;;;;;4954408;29;20493;-79
2022/07/01 03:23:36;;;;;;;13.48;7.45;;;;;;;;;;4961950;28;20035;-78
2022/07/01 03:26:22;;;;;;;10.73;6.60;;;;;;;;;;4955388;29;20051;-79
2022/07/01 03:29:07;;;;;;;15.05;8.80;;;;;;;;;;4954941;29;20043;-78
2022/07/01 03:31:53;;;;;;;17.38;12.15;;;;;;;;;;4955473;29;20047;-78
2022/07/01 03:34:40;;;;;;;18.23;10.55;;;;;;;;;;4960855;29;20047;-78
2022/07/01 03:37:25;;;;;;;17.77;10.35;;;;;;;;;;4955241;29;20493;-77
2022/07/01 03:40:11;;;;;;;18.10;11.50;;;;;;;;;;4955145;28;20055;-78
2022/07/01 03:42:57;;;;;;;17.75;11.27;;;;;;;;;;4953876;29;20055;-78
2022/07/01 03:45:42;;;;;;;18.10;11.10;;;;;;;;;;4955007;29;20043;-78
2022/07/01 03:48:27;;;;;;;16.58;9.25;;;;;;;;;;4957529;29;20051;-78
2022/07/01 03:51:13;;;;;;;19.85;8.30;;;;;;;;;;4958596;29;20043;-78
2022/07/01 03:57:07;;;;;;;16.40;8.40;;;;;;;;;;4958461;29;20047;-78
2022/07/01 03:59:53;;;;;;;11.30;6.93;;;;;;;;;;4958976;29;20043;-78
2022/07/01 04:02:38;;;;;;;19.23;6.93;;;;;;;;;;4958554;29;20393;-78
2022/07/01 04:05:24;;;;;;;11.75;6.20;;;;;;;;;;4958705;29;20055;-78
2022/07/01 04:08:10;;;;;;;10.95;6.07;;;;;;;;;;4959129;29;20051;-78
2022/07/01 04:10:56;;;;;;;23.00;6.65;;;;;;;;;;4957726;29;20047;-79
2022/07/01 04:13:49;;;;;;;11.80;6.13;;;;;;;;;;4958546;29;20047;-79
2022/07/01 04:16:37;;;;;;;10.95;5.90;;;;;;;;;;4958326;29;20047;-79
2022/07/01 04:19:22;;;;;;;13.07;6.20;;;;;;;;;;4958356;29;20047;-78
2022/07/01 04:25:11;;;;;;;7.68;5.60;;;;;;;;;;4958083;29;20470;-78
2022/07/01 04:27:57;;;;;;;8.52;5.30;;;;;;;;;;4958444;29;20047;-78
2022/07/01 04:30:42;;;;;;;16.95;5.57;;;;;;;;;;4958080;29;20051;-78
2022/07/01 04:33:27;;;;;;;15.95;5.45;;;;;;;;;;4956966;29;20063;-77
2022/07/01 04:36:13;;;;;;;10.25;5.60;;;;;;;;;;4957666;29;20051;-78
2022/07/01 04:39:03;;;;;;;14.93;5.63;;;;;;;;;;4943187;29;20035;-77
2022/07/01 04:42:00;;;;;;;14.10;6.43;;;;;;;;;;4958367;29;20044;-78
2022/07/01 04:44:46;;;;;;;14.30;6.18;;;;;;;;;;4958064;29;20047;-77
2022/07/01 04:47:32;;;;;;;10.88;6.25;;;;;;;;;;4957988;29;20043;-78
2022/07/01 04:50:17;;;;;;;15.13;7.10;;;;;;;;;;4958118;29;20048;-78
2022/07/01 04:53:02;;;;;;;13.20;6.85;;;;;;;;;;4957404;29;20047;-78
2022/07/01 04:55:48;;;;;;;10.20;6.78;;;;;;;;;;4958120;29;20044;-77
2022/07/01 04:58:33;;;;;;;11.25;6.45;;;;;;;;;;4957449;28;20048;-77
2022/07/01 05:01:18;;;;;;;14.27;6.32;;;;;;;;;;4957301;29;20090;-77
2022/07/01 05:04:04;;;;;;;10.68;6.00;;;;;;;;;;4957696;29;20481;-77
2022/07/01 05:06:49;;;;;;;9.82;5.50;;;;;;;;;;4957220;29;20060;-78
2022/07/01 05:09:35;;;;;;;22.08;6.15;;;;;;;;;;4956788;29;20401;-77
2022/07/01 05:12:21;;;;;;;15.07;5.85;;;;;;;;;;4957470;29;20047;-77
2022/07/01 05:15:08;;;;;;;8.82;4.97;;;;;;;;;;4956549;29;20047;-77
2022/07/01 05:24:00;;;;;;;12.00;5.72;;;;;;;;;;4964007;28;20043;-78
2022/07/01 05:26:46;;;;;;;11.80;5.93;;;;;;;;;;4957016;29;20497;-80
2022/07/01 05:29:31;;;;;;;12.32;5.20;;;;;;;;;;4956610;29;20043;-80
2022/07/01 05:32:16;;;;;;;15.95;5.53;;;;;;;;;;4957247;29;20055;-80
2022/07/01 05:35:02;;;;;;;9.98;4.50;;;;;;;;;;4956548;29;20043;-81
2022/07/01 05:37:48;;;;;;;10.57;4.20;;;;;;;;;;4956851;29;20469;-80
2022/07/01 05:40:33;;;;;;;7.88;4.07;;;;;;;;;;4956664;29;20055;-79
2022/07/01 05:43:20;;;;;;;8.52;4.10;;;;;;;;;;4944046;29;20039;-78
2022/07/01 05:46:06;;;;;;;15.05;4.53;;;;;;;;;;4957310;29;20400;-79
2022/07/01 05:48:51;;;;;;;10.00;4.68;;;;;;;;;;4957105;29;20055;-79
2022/07/01 05:51:37;;;;;;;9.25;4.70;;;;;;;;;;4956684;29;20051;-79
2022/07/01 05:54:22;;;;;;;9.25;3.92;;;;;;;;;;4956527;29;20052;-79
2022/07/01 05:57:09;;;;;;;8.65;4.35;;;;;;;;;;4956256;29;20047;-80
2022/07/01 05:59:54;;;;;;;12.02;4.90;;;;;;;;;;4942416;29;20405;-80
2022/07/01 06:02:39;;;;;;;11.32;5.20;;;;;;;;;;4963262;28;20440;-80
2022/07/01 06:05:25;;;;;;;11.38;4.25;;;;;;;;;;4956248;29;20043;-80
2022/07/01 06:08:10;;;;;;;5.53;3.70;;;;;;;;;;4948627;28;20051;-80
2022/07/01 06:10:55;;;;;;;7.65;4.10;;;;;;;;;;4955006;28;20386;-79
2022/07/01 06:13:41;;;;;;;11.05;4.82;;;;;;;;;;4956182;29;20051;-80
2022/07/01 06:16:26;;;;;;;9.75;4.00;;;;;;;;;;4955011;29;20039;-79
2022/07/01 06:19:11;;;;;;;11.93;4.60;;;;;;;;;;4955946;29;20059;-80
2022/07/01 06:21:57;;;;;;;12.43;4.85;;;;;;;;;;4962918;28;20055;-80
2022/07/01 06:24:44;;;;;;;12.15;4.20;;;;;;;;;;4954759;29;20047;-81
2022/07/01 06:27:28;;;;;;;8.50;4.38;;;;;;;;;;4955999;29;20043;-81
2022/07/01 06:30:14;;;;;;;11.75;4.50;;;;;;;;;;4956047;29;20043;-80
2022/07/01 06:32:59;;;;;;;11.18;4.85;;;;;;;;;;4955751;29;20043;-80
2022/07/01 06:35:45;;;;;;;13.10;4.20;;;;;;;;;;4955984;29;20051;-79
2022/07/01 06:38:31;;;;;;;8.35;4.20;;;;;;;;;;4956056;29;20477;-79
2022/07/01 06:41:28;;;;;;;7.00;4.00;;;;;;;;;;4955682;29;20481;-78
2022/07/01 06:44:14;;;;;;;10.35;4.38;;;;;;;;;;4955522;29;20059;-78
2022/07/01 06:46:59;;;;;;;10.85;4.22;;;;;;;;;;4955419;29;20043;-78
2022/07/01 06:49:45;;;;;;;9.23;4.30;;;;;;;;;;4956067;29;20047;-79
2022/07/01 06:52:30;;;;;;;10.73;4.50;;;;;;;;;;4955862;29;20051;-78
2022/07/01 06:55:17;;;;;;;9.55;4.38;;;;;;;;;;4954930;29;20077;-79
2022/07/01 06:58:04;;;;;;;16.00;4.65;;;;;;;;;;4955654;29;20043;-80
2022/07/01 07:00:48;;;;;;;13.75;4.30;;;;;;;;;;4955331;29;20051;-80
2022/07/01 07:03:34;;;;;;;9.60;4.35;;;;;;;;;;4956313;29;20039;-80
2022/07/01 07:06:20;;;;;;;14.20;4.35;;;;;;;;;;4955571;29;20043;-81
2022/07/01 07:09:06;;;;;;;10.85;4.68;;;;;;;;;;4955207;29;20058;-80
2022/07/01 07:11:52;;;;;;;10.65;4.60;;;;;;;;;;4954843;29;20043;-80
2022/07/01 07:14:37;;;;;;;12.20;4.43;;;;;;;;;;4954972;29;20047;-78
2022/07/01 07:17:23;;;;;;;11.02;4.30;;;;;;;;;;4955936;29;20051;-75
2022/07/01 07:20:09;;;;;;;9.48;4.22;;;;;;;;;;4955510;29;20039;-76
2022/07/01 07:22:54;;;;;;;10.05;4.03;;;;;;;;;;4954814;29;20046;-76
2022/07/01 07:25:40;;;;;;;10.77;4.60;;;;;;;;;;4955319;29;20047;-75
2022/07/01 07:28:25;;;;;;;11.70;4.32;;;;;;;;;;4955321;29;20047;-76
2022/07/01 07:31:11;;;;;;;11.93;4.72;;;;;;;;;;4955138;29;20059;-75
2022/07/01 07:33:56;;;;;;;11.85;4.45;;;;;;;;;;4955581;29;20040;-76
2022/07/01 07:36:42;;;;;;;11.18;4.88;;;;;;;;;;4954846;29;20404;-76
2022/07/01 07:39:27;;;;;;;10.23;4.32;;;;;;;;;;4961836;28;20047;-76
2022/07/01 07:42:13;;;;;;;10.70;4.55;;;;;;;;;;4954969;29;20060;-76
2022/07/01 07:44:59;;;;;;;10.77;4.43;;;;;;;;;;4961184;29;20481;-76
2022/07/01 07:47:48;;;;;;;9.85;4.25;;;;;;;;;;4955263;29;20055;-76
2022/07/01 07:50:33;;;;;;;8.35;4.25;;;;;;;;;;4954721;29;20489;-77
2022/07/01 07:53:19;;;;;;;13.57;4.90;;;;;;;;;;4955235;29;20055;-76
2022/07/01 07:56:04;;;;;;;11.98;4.55;;;;;;;;;;4961498;29;20047;-77
2022/07/01 07:58:50;;;;;;;17.02;5.03;;;;;;;;;;4954718;29;20047;-76
2022/07/01 08:01:35;;;;;;;10.70;4.63;;;;;;;;;;4955173;29;20047;-77
2022/07/01 08:04:21;;;;;;;16.55;5.00;;;;;;;;;;4954736;29;20047;-76
2022/07/01 08:07:06;;;;;;;10.30;4.85;;;;;;;;;;4954957;29;20501;-76
2022/07/01 08:09:52;;;;;;;14.00;5.50;;;;;;;;;;4955156;29;20044;-76
2022/07/01 08:12:38;;;;;;;8.23;4.45;;;;;;;;;;4961001;29;20048;-76
2022/07/01 08:15:23;;;;;;;8.63;4.35;;;;;;;;;;4954719;29;20047;-76
2022/07/01 08:18:09;;;;;;;11.73;4.78;;;;;;;;;;4955179;29;20047;-76
2022/07/01 08:20:55;;;;;;;13.05;5.10;;;;;;;;;;4954888;29;20047;-76
2022/07/01 08:23:40;;;;;;;9.20;4.57;;;;;;;;;;4961363;29;20043;-76
2022/07/01 08:26:26;;;;;;;16.92;4.88;;;;;;;;;;4954329;29;20059;-75
2022/07/01 08:29:11;;;;;;;10.50;5.18;;;;;;;;;;4954898;29;20051;-76
2022/07/01 08:31:57;;;;;;;23.35;6.10;;;;;;;;;;4954676;29;20043;-75
2022/07/01 08:34:42;;;;;;;13.20;5.00;;;;;;;;;;4956576;29;20047;-76
2022/07/01 08:37:28;;;;;;;26.92;7.85;;;;;;;;;;4958230;29;20039;-76
2022/07/01 08:40:14;;;;;;;18.95;6.68;;;;;;;;;;4957478;29;20059;-76
2022/07/01 08:43:01;;;;;;;23.52;6.47;;;;;;;;;;4957244;29;20409;-76
2022/07/01 08:45:50;;;;;;;18.20;6.95;;;;;;;;;;4957561;29;20051;-75
2022/07/01 08:48:35;;;;;;;13.60;5.70;;;;;;;;;;4957595;29;20051;-75
2022/07/01 08:51:21;;;;;;;15.13;5.72;;;;;;;;;;4958135;29;20051;-77
2022/07/01 08:54:06;;;;;;;24.45;7.55;;;;;;;;;;4957793;29;20047;-77
2022/07/01 08:56:52;;;;;;;13.55;5.53;;;;;;;;;;4964451;28;20055;-76
2022/07/01 08:59:37;;;;;;;19.30;5.63;;;;;;;;;;4957866;29;20047;-76
2022/07/01 09:02:24;;;;;;;14.10;5.00;;;;;;;;;;4957289;29;20043;-76
2022/07/01 09:05:10;;;;;;;15.50;6.18;;;;;;;;;;4957730;29;20043;-77
2022/07/01 09:08:00;;;;;;;18.42;6.28;;;;;;;;;;4964464;28;20043;-77
2022/07/01 09:10:46;;;;;;;16.67;5.78;;;;;;;;;;4957352;29;20043;-76
2022/07/01 09:13:32;;;;;;;12.65;5.25;;;;;;;;;;4957623;29;20481;-76
2022/07/01 09:16:17;;;;;;;17.63;5.70;;;;;;;;;;4956897;29;20051;-76
2022/07/01 09:19:03;;;;;;;12.25;5.10;;;;;;;;;;4963860;28;20051;-77
2022/07/01 09:21:49;;;;;;;15.30;5.28;;;;;;;;;;4957857;29;20051;-75
2022/07/01 09:24:37;;;;;;;14.27;5.00;;;;;;;;;;4957269;29;20043;-75
2022/07/01 09:27:25;;;;;;;11.05;5.28;;;;;;;;;;4957278;29;20047;-75
2022/07/01 09:30:12;;;;;;;13.48;5.20;;;;;;;;;;4957352;29;20413;-75
2022/07/01 09:33:11;;;;;;;13.45;5.00;;;;;;;;;;4963514;28;20393;-74
2022/07/01 09:35:59;;;;;;;15.13;5.20;;;;;;;;;;4957044;29;20039;-74
2022/07/01 09:38:47;;;;;;;12.63;5.47;;;;;;;;;;4956677;29;20481;-75
2022/07/01 09:41:37;;;;;;;11.73;5.38;;;;;;;;;;4956932;29;20035;-75
2022/07/01 09:44:22;;;;;;;13.50;5.05;;;;;;;;;;4956526;28;20047;-76
2022/07/01 09:47:07;;;;;;;13.70;5.63;;;;;;;;;;4956862;29;20421;-76
2022/07/01 09:49:54;;;;;;;11.95;5.40;;;;;;;;;;4956928;29;20039;-77
2022/07/01 09:52:40;;;;;;;14.32;4.95;;;;;;;;;;4956629;29;20497;-74
2022/07/01 09:55:26;;;;;;;10.32;4.70;;;;;;;;;;4956571;29;20043;-75
2022/07/01 09:58:11;;;;;;;14.27;4.97;;;;;;;;;;4956822;29;20051;-76
2022/07/01 10:00:56;;;;;;;11.55;5.20;;;;;;;;;;4962623;28;20485;-75
2022/07/01 10:03:43;;;;;;;10.73;5.15;;;;;;;;;;4956647;29;20051;-75
2022/07/01 10:06:40;;;;;;;7.82;5.00;;;;;;;;;;4947906;28;20054;-75
2022/07/01 10:09:32;;;;;;;12.00;4.57;;;;;;;;;;4956486;29;20044;-75
2022/07/01 10:12:21;;;;;;;9.60;4.20;;;;;;;;;;4956734;29;20046;-75
2022/07/01 10:15:09;;;;;;;13.88;4.60;;;;;;;;;;4956033;29;20043;-76
2022/07/01 10:17:54;;;;;;;8.32;3.83;;;;;;;;;;4956785;29;20047;-76
2022/07/01 10:20:40;;;;;;;8.88;4.03;;;;;;;;;;4955833;29;20043;-75
2022/07/01 10:23:41;;;;;;;9.35;4.07;;;;;;;;;;4956210;29;20047;-78
2022/07/01 10:26:29;;;;;;;9.23;4.25;;;;;;;;;;4956694;29;20393;-75
2022/07/01 10:29:40;;;;;;;9.82;4.18;;;;;;;;;;4941650;29;20047;-74
2022/07/01 10:32:28;;;;;;;10.23;4.47;;;;;;;;;;4963120;28;20409;-74
2022/07/01 10:35:14;;;;;;;6.78;4.25;;;;;;;;;;4955510;29;20039;-76
2022/07/01 10:38:01;;;;;;;9.68;4.00;;;;;;;;;;4962572;28;20043;-75
2022/07/01 10:40:48;;;;;;;7.75;4.38;;;;;;;;;;4961929;28;20493;-75
2022/07/01 10:43:35;;;;;;;8.60;3.80;;;;;;;;;;4955170;29;20047;-76
2022/07/01 10:46:44;;;;;;;10.52;4.18;;;;;;;;;;4955946;29;20106;-75
2022/07/01 10:49:36;;;;;;;12.15;4.30;;;;;;;;;;4954585;29;20051;-76
2022/07/01 10:52:22;;;;;;;8.52;3.80;;;;;;;;;;4955171;29;20052;-75
2022/07/01 10:55:09;;;;;;;11.70;3.92;;;;;;;;;;4955215;29;20047;-77
2022/07/01 10:57:54;;;;;;;11.13;4.20;;;;;;;;;;4961031;28;20485;-75
2022/07/01 11:00:44;;;;;;;7.30;3.55;;;;;;;;;;4955524;29;20043;-76
2022/07/01 11:03:35;;;;;;;8.10;3.63;;;;;;;;;;4954930;29;20047;-75
2022/07/01 11:06:20;;;;;;;11.70;3.40;;;;;;;;;;4955655;29;20432;-75
2022/07/01 11:09:06;;;;;;;5.55;3.50;;;;;;;;;;4954815;29;20039;-75
2022/07/01 11:11:52;;;;;;;4.72;3.00;;;;;;;;;;4954836;29;20051;-75
2022/07/01 11:14:39;;;;;;;6.40;3.83;;;;;;;;;;4955463;29;20047;-75
2022/07/01 11:17:26;;;;;;;5.88;3.33;;;;;;;;;;4961071;28;20043;-75
2022/07/01 11:20:11;;;;;;;6.53;3.58;;;;;;;;;;4955252;29;20047;-75
2022/07/01 11:22:57;;;;;;;10.10;3.63;;;;;;;;;;4955553;29;20043;-76
2022/07/01 11:25:43;;;;;;;5.50;3.15;;;;;;;;;;4961046;28;20051;-79
2022/07/01 11:28:28;;;;;;;6.78;3.33;;;;;;;;;;4955433;29;20055;-78
2022/07/01 11:31:14;;;;;;;4.70;3.05;;;;;;;;;;4954675;29;20043;-77
2022/07/01 11:34:00;;;;;;;11.30;3.72;;;;;;;;;;4962638;28;20047;-79
2022/07/01 11:40:01;;;;;;;7.35;3.70;;;;;;;;;;4955640;29;20047;-79
2022/07/01 11:42:47;;;;;;;4.72;3.58;;;;;;;;;;4959158;29;20048;-79
2022/07/01 11:45:32;;;;;;;5.88;3.25;;;;;;;;;;4954614;29;20050;-77
2022/07/01 11:48:39;;;;;;;11.85;3.13;;;;;;;;;;4955017;29;20450;-76
2022/07/01 11:51:26;;;;;;;7.43;3.25;;;;;;;;;;4954921;29;20059;-78
2022/07/01 11:54:21;;;;;;;5.13;3.30;;;;;;;;;;4960904;29;20043;-76
2022/07/01 11:57:17;;;;;;;8.35;3.53;;;;;;;;;;4955696;29;20051;-76
2022/07/01 12:00:12;;;;;;;8.65;3.25;;;;;;;;;;4954794;29;20035;-78
2022/07/01 12:02:57;;;;;;;8.77;3.40;;;;;;;;;;4940671;29;20047;-76
2022/07/01 12:05:43;;;;;;;7.55;3.67;;;;;;;;;;4955227;29;20485;-79
2022/07/01 12:08:28;;;;;;;4.00;3.20;;;;;;;;;;4955922;28;20043;-76
2022/07/01 12:11:15;;;;;;;5.85;3.30;;;;;;;;;;4960711;29;20051;-78
2022/07/01 12:14:00;;;;;;;6.90;3.58;;;;;;;;;;4958324;29;20043;-79
2022/07/01 12:16:47;;;;;;;5.18;3.38;;;;;;;;;;4957992;29;20055;-76
2022/07/01 12:19:39;;;;;;;5.75;3.35;;;;;;;;;;4965004;28;20050;-76
2022/07/01 12:22:26;;;;;;;6.82;3.50;;;;;;;;;;4957934;29;20409;-76
2022/07/01 12:25:15;;;;;;;5.53;3.47;;;;;;;;;;4958537;29;20489;-76
2022/07/01 12:28:00;;;;;;;7.65;3.35;;;;;;;;;;4964029;28;20047;-76
2022/07/01 12:30:46;;;;;;;5.35;3.83;;;;;;;;;;4964427;28;20047;-76
2022/07/01 12:33:36;;;;;;;8.00;3.60;;;;;;;;;;4958133;29;20436;-77
2022/07/01 12:36:21;;;;;;;6.38;3.55;;;;;;;;;;4957475;29;20497;-78
2022/07/01 12:39:06;;;;;;;6.63;3.92;;;;;;;;;;4958136;29;20051;-81
2022/07/01 12:41:52;;;;;;;5.50;3.58;;;;;;;;;;4958254;29;20497;-81
2022/07/01 12:44:44;;;;;;;8.05;3.75;;;;;;;;;;4938905;29;20051;-79
2022/07/01 12:47:32;;;;;;;11.23;3.83;;;;;;;;;;4945235;29;20477;-81
2022/07/01 12:50:28;;;;;;;10.75;3.80;;;;;;;;;;4938090;29;20044;-76
2022/07/01 12:53:22;;;;;;;6.25;4.10;;;;;;;;;;4939243;29;20408;-78
2022/07/01 12:56:21;;;;;;;;;;;;;;;;;;4938723;29;20047;-78
2022/07/01 12:59:06;;;;;;;10.73;3.67;;;;;;;;;;4944680;29;19919;-77
2022/07/01 13:01:53;;;;;;;7.38;3.33;;;;;;;;;;4938615;29;20052;-76
2022/07/01 13:04:39;;;;;;;9.88;3.83;;;;;;;;;;4937855;29;20047;-79
2022/07/01 13:07:24;;;;;;;8.48;3.85;;;;;;;;;;4944832;29;20059;-78
2022/07/01 13:10:10;;;;;;;7.05;3.90;;;;;;;;;;4944674;29;20051;-78
2022/07/01 13:12:56;;;;;;;6.90;3.90;;;;;;;;;;4938193;29;20055;-77
2022/07/01 13:15:41;;;;;;;8.45;3.63;;;;;;;;;;4938316;29;20036;-76
2022/07/01 13:18:27;;;;;;;9.20;3.58;;;;;;;;;;4937768;29;20052;-77
2022/07/01 13:21:12;;;;;;;5.65;3.88;;;;;;;;;;4939081;29;20063;-77
2022/07/01 13:23:58;;;;;;;7.40;4.00;;;;;;;;;;4939235;29;20044;-78
2022/07/01 13:26:43;;;;;;;15.60;3.92;;;;;;;;;;4937617;29;20405;-79
2022/07/01 13:29:30;;;;;;;7.53;3.78;;;;;;;;;;4938289;29;20048;-76
2022/07/01 13:32:16;;;;;;;6.82;3.60;;;;;;;;;;4937748;29;20044;-76
2022/07/01 13:35:02;;;;;;;8.63;3.92;;;;;;;;;;4937966;29;20048;-81
2022/07/01 13:37:49;;;;;;;5.82;3.55;;;;;;;;;;4937855;29;20043;-81
2022/07/01 13:40:34;;;;;;;9.25;3.55;;;;;;;;;;4937894;29;20052;-80
2022/07/01 13:43:20;;;;;;;8.75;3.30;;;;;;;;;;4948843;29;20401;-79
2022/07/01 13:46:06;;;;;;;10.95;3.83;;;;;;;;;;4956397;29;20047;-77
2022/07/01 13:48:52;;;;;;;9.50;3.50;;;;;;;;;;4957415;29;20393;-79
2022/07/01 13:51:46;;;;;;;10.88;3.85;;;;;;;;;;4957323;29;20051;-82
2022/07/01 13:54:35;;;;;;;7.95;4.05;;;;;;;;;;4956412;29;20044;-79
2022/07/01 13:57:21;;;;;;;9.75;3.80;;;;;;;;;;4963471;28;20497;-77
2022/07/01 14:00:08;;;;;;;9.95;3.80;;;;;;;;;;4956861;29;20043;-79
2022/07/01 14:02:54;;;;;;;5.93;3.55;;;;;;;;;;4956400;29;20051;-80
2022/07/01 14:05:40;;;;;;;9.73;3.53;;;;;;;;;;4963303;28;20051;-80
2022/07/01 14:08:26;;;;;;;12.95;3.85;;;;;;;;;;4956259;29;20051;-78
2022/07/01 14:11:12;;;;;;;5.72;3.40;;;;;;;;;;4956248;29;20059;-80
2022/07/01 14:13:57;;;;;;;7.90;3.90;;;;;;;;;;4956432;29;20040;-79
2022/07/01 14:16:43;;;;;;;7.50;3.47;;;;;;;;;;4955583;29;20050;-77
2022/07/01 14:19:28;;;;;;;9.48;3.83;;;;;;;;;;4956314;29;20055;-76
2022/07/01 14:22:14;;;;;;;9.27;3.58;;;;;;;;;;4962525;28;20047;-76
2022/07/01 14:25:00;;;;;;;9.15;3.17;;;;;;;;;;4962759;28;20055;-77
2022/07/01 14:27:47;;;;;;;6.07;3.25;;;;;;;;;;4956179;29;20058;-77
2022/07/01 14:30:33;;;;;;;9.48;3.50;;;;;;;;;;4961803;28;20051;-77
2022/07/01 14:33:19;;;;;;;8.40;3.40;;;;;;;;;;4961833;28;20047;-75
2022/07/01 14:36:04;;;;;;;10.02;4.05;;;;;;;;;;4955399;29;20404;-74
2022/07/01 14:38:50;;;;;;;7.13;3.38;;;;;;;;;;4956024;29;20047;-75
2022/07/01 14:41:35;;;;;;;7.97;3.78;;;;;;;;;;4955808;29;20051;-78
2022/07/01 14:44:21;;;;;;;6.55;3.55;;;;;;;;;;4955721;29;20047;-76
2022/07/01 14:47:07;;;;;;;4.78;3.30;;;;;;;;;;4955561;29;20043;-78
2022/07/01 14:49:53;;;;;;;6.22;3.22;;;;;;;;;;4955935;29;20043;-75
2022/07/01 14:52:39;;;;;;;12.02;3.47;;;;;;;;;;4955876;28;20047;-77
2022/07/01 14:55:24;;;;;;;12.23;3.50;;;;;;;;;;4962095;28;20035;-78
2022/07/01 14:58:09;;;;;;;9.23;3.20;;;;;;;;;;4955231;29;20473;-79
2022/07/01 15:00:54;;;;;;;11.52;3.67;;;;;;;;;;4955726;29;20047;-79
2022/07/01 15:03:46;;;;;;;8.10;3.35;;;;;;;;;;4947386;28;20039;-77
2022/07/01 15:06:32;;;;;;;8.13;2.80;;;;;;;;;;4961427;28;20051;-78
2022/07/01 15:09:21;;;;;;;6.07;3.15;;;;;;;;;;4955136;29;20481;-76
2022/07/01 15:12:07;;;;;;;5.90;3.35;;;;;;;;;;4961210;28;20051;-78
2022/07/01 15:14:52;;;;;;;7.53;3.15;;;;;;;;;;4955483;29;20051;-76
2022/07/01 15:17:43;;;;;;;5.53;2.92;;;;;;;;;;4955206;29;20047;-78
2022/07/01 15:20:29;;;;;;;9.05;3.42;;;;;;;;;;4955054;29;20047;-77
2022/07/01 15:23:14;;;;;;;6.38;3.40;;;;;;;;;;4940743;29;20043;-77
2022/07/01 15:26:00;;;;;;;5.93;2.70;;;;;;;;;;4954919;29;20051;-77
2022/07/01 15:28:45;;;;;;;5.32;3.22;;;;;;;;;;4955192;29;20039;-77
2022/07/01 15:31:31;;;;;;;25.10;10.98;;;;;;;;;;4954328;29;20039;-78
2022/07/01 15:34:17;;;;;;;25.13;11.35;;;;;;;;;;4954601;29;20051;-76
2022/07/01 15:37:03;;;;;;;12.13;6.40;;;;;;;;;;4954683;29;20047;-77
2022/07/01 15:39:49;;;;;;;10.98;5.32;;;;;;;;;;4954837;29;20043;-79
2022/07/01 15:42:36;;;;;;;55.95;25.45;;;;;;;;;;4955955;28;20493;-77
2022/07/01 15:45:22;;;;;;;34.83;15.25;;;;;;;;;;4965626;28;20421;-77
2022/07/01 15:48:10;;;;;;;13.10;6.18;;;;;;;;;;4964937;28;20047;-78
2022/07/01 15:50:56;;;;;;;10.43;4.13;;;;;;;;;;4958749;29;20051;-77
2022/07/01 15:53:41;;;;;;;9.02;3.40;;;;;;;;;;4958972;29;20047;-75
2022/07/01 15:56:30;;;;;;;8.25;3.08;;;;;;;;;;4957863;29;20043;-77
2022/07/01 15:59:16;;;;;;;6.25;3.05;;;;;;;;;;4958131;29;20039;-77
2022/07/01 16:02:01;;;;;;;8.88;3.13;;;;;;;;;;4958529;29;20055;-77
2022/07/01 16:04:51;;;;;;;9.40;3.70;;;;;;;;;;4965558;28;20051;-77
2022/07/01 16:07:38;;;;;;;8.18;4.60;;;;;;;;;;4958597;29;20425;-78
2022/07/01 16:10:46;;;;;;;9.25;3.90;;;;;;;;;;4957888;29;20035;-79
2022/07/01 16:13:33;;;;;;;8.20;3.90;;;;;;;;;;4958466;29;20050;-79
2022/07/01 16:16:22;;;;;;;6.10;3.67;;;;;;;;;;4963814;28;20047;-79
2022/07/01 16:19:07;;;;;;;8.38;4.10;;;;;;;;;;4958251;29;20047;-76
2022/07/01 16:21:53;;;;;;;10.45;5.10;;;;;;;;;;4958208;29;20413;-80
2022/07/01 16:24:41;;;;;;;11.52;5.50;;;;;;;;;;4957727;29;20039;-76
2022/07/01 16:27:27;;;;;;;54.80;24.60;;;;;;;;;;4958055;29;20051;-79
2022/07/01 16:30:12;;;;;;;56.88;26.05;;;;;;;;;;4964166;28;20047;-79
2022/07/01 16:32:59;;;;;;;18.50;8.30;;;;;;;;;;4957689;29;20051;-80
2022/07/01 16:35:48;;;;;;;13.00;5.90;;;;;;;;;;4957925;29;20047;-76
2022/07/01 16:38:43;;;;;;;7.38;4.22;;;;;;;;;;4957609;29;20505;-77
2022/07/01 16:41:28;;;;;;;10.10;4.07;;;;;;;;;;4958008;29;20047;-79
2022/07/01 16:44:26;;;;;;;8.43;3.67;;;;;;;;;;4960338;28;20405;-80
2022/07/01 16:47:21;;;;;;;7.07;3.88;;;;;;;;;;4964823;28;20039;-78
2022/07/01 16:50:11;;;;;;;8.52;3.78;;;;;;;;;;4960457;29;20047;-75